ADDS METAR Data INFO
IDs: Format: Raw Decoded Include TAF

Data at: 0808 UTC 23 Jul 2018

KONA 230755Z AUTO 00000KT 10SM CLR 17/17 A3002 RMK AO2
KONA 230735Z AUTO 00000KT 10SM CLR 17/17 A3001 RMK AO2
KONA 230716Z AUTO 32003KT 10SM CLR 17/17 A3002 RMK AO2
KONA 230715Z AUTO 32003KT 10SM CLR 17/17 A3002 RMK AO2
KONA 230655Z AUTO 31003KT 10SM CLR 17/17 A3002 RMK AO2
KONA 230636Z AUTO 32004KT 10SM CLR 17/17 A3002 RMK AO2
KONA 230635Z AUTO 32004KT 10SM CLR 17/17 A3002 RMK AO2
KONA 230616Z AUTO 00000KT 10SM CLR 19/18 A3002 RMK AO2
KONA 230615Z AUTO 00000KT 10SM CLR 19/18 A3002 RMK AO2
KONA 230555Z AUTO 00000KT 10SM CLR 19/18 A3003 RMK AO2
KONA 230536Z AUTO 00000KT 10SM CLR 20/19 A3003 RMK AO2
KONA 230535Z AUTO 00000KT 10SM CLR 20/18 A3003 RMK AO2
KONA 230516Z AUTO 00000KT 10SM CLR 21/19 A3004 RMK AO2
KONA 230515Z AUTO 00000KT 10SM CLR 21/19 A3004 RMK AO2
KONA 230455Z AUTO 33004KT 10SM CLR 21/19 A3004 RMK AO2
KONA 230436Z AUTO 32003KT 10SM CLR 21/19 A3004 RMK AO2
KONA 230435Z AUTO 32003KT 10SM CLR 21/19 A3004 RMK AO2
KONA 230416Z AUTO 31004KT 10SM CLR 21/19 A3004 RMK AO2
KONA 230415Z AUTO 31004KT 10SM CLR 21/19 A3004 RMK AO2
KONA 230355Z AUTO 32003KT 10SM CLR 21/18 A3003 RMK AO2
KONA 230336Z AUTO 33004KT 10SM CLR 21/18 A3002 RMK AO2
KONA 230335Z AUTO 33004KT 10SM CLR 21/18 A3002 RMK AO2
KONA 230315Z AUTO 31004KT 10SM CLR 21/18 A3002 RMK AO2
KONA 230256Z AUTO 32003KT 10SM CLR 21/18 A3002 RMK AO2
KONA 230255Z AUTO 32003KT 10SM CLR 21/18 A3002 RMK AO2
KONA 230235Z AUTO 00000KT 10SM CLR 23/19 A3001 RMK AO2
KONA 230215Z AUTO 00000KT 10SM CLR 22/18 A3001 RMK AO2
KONA 230156Z AUTO 00000KT 10SM CLR 23/18 A3001 RMK AO2
KONA 230135Z AUTO 00000KT 10SM CLR 23/18 A3001 RMK AO2
KONA 230115Z AUTO 33003KT 10SM CLR 24/17 A3001 RMK AO2
KONA 230056Z AUTO 34004KT 10SM CLR 25/17 A3001 RMK AO2
KONA 230055Z AUTO 35003KT 10SM CLR 25/17 A3001 RMK AO2
KONA 230035Z AUTO 34005KT 10SM CLR 25/17 A3001 RMK AO2
KONA 230015Z AUTO 34005KT 10SM CLR 26/18 A3001 RMK AO2
KONA 222356Z AUTO 34005KT 10SM SCT055 SCT065 26/18 A3001 RMK AO2
KONA 222355Z AUTO 34004KT 10SM SCT043 SCT055 SCT065 26/18 A3001 RMK AO2
KONA 222335Z AUTO 34006KT 10SM SCT040 BKN045 BKN050 25/17 A3000 RMK AO2
KONA 222315Z AUTO 34005KT 10SM SCT040 SCT050 26/18 A3001 RMK AO2
KONA 222256Z AUTO 36003KT 10SM SCT050 BKN060 26/18 A3000 RMK AO2
KONA 222255Z AUTO 00000KT 10SM SCT050 BKN060 26/18 A3000 RMK AO2
KONA 222235Z AUTO 34007KT 10SM SCT060 BKN065 26/17 A3000 RMK AO2
KONA 222215Z AUTO 36003KT 10SM SCT033 SCT039 OVC060 26/17 A3001 RMK AO2
KONA 222156Z AUTO 36004KT 10SM SCT035 SCT048 BKN060 26/18 A3001 RMK AO2
KONA 222155Z AUTO 34005KT 10SM SCT035 SCT048 BKN060 26/18 A3001 RMK AO2
KONA 222135Z AUTO 35005KT 10SM SCT038 SCT070 26/17 A3001 RMK AO2
KONA 222115Z AUTO 35005KT 10SM SCT038 OVC060 26/18 A3001 RMK AO2
KONA 222056Z AUTO 35003KT 10SM SCT034 SCT042 BKN060 26/18 A3001 RMK AO2
KONA 222055Z AUTO 35003KT 10SM SCT034 SCT042 BKN060 26/18 A3001 RMK AO2
KONA 222035Z AUTO 36004KT 10SM SCT037 BKN060 26/17 A3001 RMK AO2
KONA 222016Z AUTO 01005KT 10SM SCT037 SCT050 26/18 A3001 RMK AO2
KONA 222015Z AUTO 02005KT 10SM SCT037 SCT050 26/17 A3001 RMK AO2
KONA 221955Z AUTO 02005KT 10SM SCT036 SCT050 26/17 A3001 RMK AO2
KONA 221935Z AUTO 36005KT 10SM SCT030 SCT038 BKN050 26/18 A3001 RMK AO2
KONA 221916Z AUTO 36004KT 10SM SCT030 SCT038 BKN050 25/18 A3001 RMK AO2
KONA 221915Z AUTO 35004KT 10SM SCT030 SCT038 BKN050 25/18 A3001 RMK AO2
KONA 221855Z AUTO 03003KT 10SM BKN032 25/17 A3001 RMK AO2
KONA 221835Z AUTO 08003KT 10SM SCT030 BKN037 25/17 A3002 RMK AO2
KONA 221816Z AUTO 01003KT 10SM OVC034 25/17 A3002 RMK AO2
KONA 221815Z AUTO 01003KT 10SM OVC034 25/17 A3002 RMK AO2
KONA 221755Z AUTO 36003KT 10SM OVC031 23/17 A3002 RMK AO2
KONA 221735Z AUTO 06006KT 10SM OVC031 24/17 A3002 RMK AO2
KONA 221716Z AUTO 05006KT 10SM BKN029 23/17 A3002 RMK AO2
KONA 221715Z AUTO 04006KT 10SM BKN029 23/17 A3002 RMK AO2
KONA 221655Z AUTO 05007KT 10SM BKN029 23/17 A3002 RMK AO2
KONA 221635Z AUTO 03006KT 10SM BKN027 23/16 A3003 RMK AO2
KONA 221615Z AUTO 02004KT 10SM BKN025 BKN030 23/17 A3002 RMK AO2
KONA 221556Z AUTO 06007KT 10SM SCT025 23/16 A3002 RMK AO2
KONA 221555Z AUTO 06007KT 10SM SCT025 23/16 A3002 RMK AO2
KONA 221536Z AUTO 03004KT 10SM CLR 23/16 A3002 RMK AO2
KONA 221535Z AUTO 03005KT 10SM CLR 23/17 A3003 RMK AO2
KONA 221515Z AUTO 03007KT 001V061 10SM CLR 23/17 A3003 RMK AO2
KONA 221456Z AUTO 01006KT 10SM CLR 23/17 A3004 RMK AO2
KONA 221455Z AUTO 36005KT 10SM CLR 22/17 A3004 RMK AO2
KONA 221436Z AUTO 01004KT 10SM CLR 21/16 A3004 RMK AO2
KONA 221415Z AUTO 36004KT 10SM SCT020 21/15 A3005 RMK AO2
KONA 221356Z AUTO 35006KT 10SM SCT020 21/16 A3005 RMK AO2
KONA 221355Z AUTO 35007KT 10SM SCT020 21/16 A3005 RMK AO2
KONA 221336Z AUTO 35005KT 10SM SCT028 21/16 A3005 RMK AO2
KONA 221315Z AUTO 36003KT 10SM BKN026 19/15 A3006 RMK AO2
KONA 221256Z AUTO 36003KT 10SM SCT026 17/14 A3006 RMK AO2
KONA 221255Z AUTO 35003KT 10SM SCT026 17/14 A3007 RMK AO2
KONA 221235Z AUTO 35004KT 10SM SCT021 17/14 A3007 RMK AO2
KONA 221215Z AUTO 33006KT 10SM SCT021 17/14 A3007 RMK AO2
KONA 221156Z AUTO 34004KT 10SM CLR 17/14 A3007 RMK AO2
KONA 221155Z AUTO 33004KT 10SM CLR 17/14 A3007 RMK AO2
KONA 221135Z AUTO 34003KT 10SM CLR 16/14 A3007 RMK AO2
KONA 221115Z AUTO 36003KT 10SM SCT016 16/14 A3006 RMK AO2
KONA 221056Z AUTO 35003KT 10SM BKN016 16/14 A3007 RMK AO2
KONA 221055Z AUTO 35003KT 10SM BKN016 16/14 A3007 RMK AO2
KONA 221035Z AUTO 33005KT 10SM BKN016 16/14 A3006 RMK AO2
KONA 221015Z AUTO 35005KT 10SM CLR 16/14 A3004 RMK AO2
KONA 220956Z AUTO 01004KT 10SM SCT014 16/14 A3004 RMK AO2
KONA 220955Z AUTO 36004KT 10SM SCT014 16/14 A3004 RMK AO2
KONA 220935Z AUTO 36003KT 10SM OVC016 17/15 A3003 RMK AO2
KONA 220915Z AUTO 00000KT 10SM BKN016 17/15 A3004 RMK AO2
KONA 220856Z AUTO 00000KT 10SM CLR 17/15 A3004 RMK AO2
KONA 220855Z AUTO 36003KT 10SM CLR 17/15 A3004 RMK AO2
KONA 220835Z AUTO 02004KT 10SM SCT018 17/15 A3004 RMK AO2
KONA 220815Z AUTO 02005KT 10SM BKN018 18/16 A3004 RMK AO2
KONA 220756Z AUTO 01004KT 10SM SCT020 18/16 A3003 RMK AO2
KONA 220755Z AUTO 36004KT 10SM SCT020 18/16 A3003 RMK AO2
KONA 220735Z AUTO 00000KT 10SM CLR 18/16 A3004 RMK AO2
KONA 220715Z AUTO 32005KT 10SM CLR 19/16 A3004 RMK AO2
KONA 220656Z AUTO 33004KT 10SM CLR 19/16 A3004 RMK AO2
KONA 220655Z AUTO 33004KT 10SM CLR 19/16 A3004 RMK AO2
KONA 220635Z AUTO 32005KT 10SM CLR 19/16 A3004 RMK AO2
KONA 220615Z AUTO 32004KT 10SM CLR 20/16 A3003 RMK AO2
KONA 220556Z AUTO 00000KT 10SM CLR 21/17 A3002 RMK AO2
KONA 220555Z AUTO 00000KT 10SM CLR 21/17 A3002 RMK AO2
KONA 220536Z AUTO 35003KT 10SM CLR 20/17 A3002 RMK AO2
KONA 220515Z AUTO 00000KT 10SM CLR 21/17 A3002 RMK AO2
KONA 220456Z AUTO 35003KT 10SM CLR 21/17 A3002 RMK AO2
KONA 220455Z AUTO 35003KT 10SM CLR 21/17 A3002 RMK AO2
KONA 220436Z AUTO 35003KT 10SM CLR 21/16 A3003 RMK AO2
KONA 220415Z AUTO 36004KT 10SM CLR 21/16 A3002 RMK AO2
KONA 220356Z AUTO 02005KT 10SM CLR 21/16 A3003 RMK AO2
KONA 220355Z AUTO 01004KT 10SM CLR 21/16 A3003 RMK AO2
KONA 220336Z AUTO 03006KT 10SM CLR 21/16 A3004 RMK AO2
KONA 220335Z AUTO 04008KT 10SM CLR 21/16 A3004 RMK AO2
KONA 220315Z AUTO 03005KT 10SM CLR 21/15 A3003 RMK AO2
KONA 220256Z AUTO 05008KT 10SM SCT033 21/16 A3003 RMK AO2
KONA 220255Z AUTO 06008KT 10SM SCT033 21/16 A3003 RMK AO2
KONA 220236Z AUTO 03009G14KT 351V061 10SM BKN033 22/16 A3003 RMK AO2
KONA 220235Z AUTO 04007KT 10SM BKN033 22/16 A3003 RMK AO2
KONA 220215Z AUTO 02006KT 10SM OVC033 23/17 A3002 RMK AO2
KONA 220156Z AUTO 03004KT 10SM OVC035 23/16 A3001 RMK AO2
KONA 220155Z AUTO 03004KT 10SM OVC035 23/16 A3001 RMK AO2
KONA 220135Z AUTO 02006KT 10SM SCT035 BKN044 23/16 A3000 RMK AO2
KONA 220115Z AUTO 02004KT 10SM OVC044 23/16 A3000 RMK AO2
KONA 220056Z AUTO 03009KT 10SM BKN042 23/16 A3000 RMK AO2
KONA 220055Z AUTO 03008KT 10SM BKN042 23/16 A3000 RMK AO2
KONA 220035Z AUTO 01005KT 10SM SCT042 23/16 A2999 RMK AO2
KONA 220015Z AUTO 36005KT 10SM SCT040 25/16 A2999 RMK AO2
KONA 212356Z AUTO 03006G15KT 001V061 10SM CLR 25/16 A2998 RMK AO2
KONA 212355Z AUTO 02008G15KT 10SM CLR 25/16 A2998 RMK AO2
KONA 212335Z AUTO 03008G14KT 10SM SCT037 SCT046 25/16 A2998 RMK AO2
KONA 212315Z AUTO 05009G17KT 10SM BKN039 BKN046 25/16 A2998 RMK AO2
KONA 212256Z AUTO 03007KT 001V061 10SM BKN039 BKN048 25/16 A2998 RMK AO2
KONA 212255Z AUTO 04008KT 001V061 10SM BKN039 BKN048 25/16 A2998 RMK AO2
KONA 212235Z AUTO 02005KT 10SM SCT039 SCT050 SCT075 25/16 A2997 RMK AO2
KONA 212215Z AUTO 04011G16KT 10SM SCT041 SCT050 BKN075 26/16 A2997 RMK AO2
KONA 212156Z AUTO 35005G15KT 10SM SCT037 BKN043 OVC075 26/17 A2997 RMK AO2
KONA 212155Z AUTO 35005G15KT 10SM BKN039 BKN055 BKN075 26/17 A2997 RMK AO2
KONA 212135Z AUTO 36006KT 10SM SCT039 SCT055 BKN075 26/17 A2996 RMK AO2
KONA 212115Z AUTO 35006KT 10SM SCT041 SCT055 OVC075 26/17 A2996 RMK AO2
KONA 212056Z AUTO 36007KT 10SM SCT041 SCT075 SCT080 27/17 A2996 RMK AO2
KONA 212055Z AUTO 36007G14KT 10SM SCT041 SCT075 SCT080 27/17 A2996 RMK AO2
KONA 212035Z AUTO 36006KT 10SM SCT050 SCT060 SCT075 26/17 A2996 RMK AO2
KONA 212015Z AUTO 36005KT 10SM SCT050 OVC060 25/16 A2996 RMK AO2